KDRT

Details ICAO KDRT (DRT)
Name Del Rio Intl
Region United States
Timezone America/Chicago (UTC-6.0)
Plans Departing 15
Arriving 13
Stats Elevation 999 ft / 304 m (AMSL)
Location 29.374207° -100.927157°
Runways 1
Magnetic Variation 5.511° E
Sunrise 2017-12-13 13:30:58 UTC / 2017-12-13 07:30:58 Local
Sunset 2017-12-13 23:47:57 UTC / 2017-12-13 17:47:57 Local
Advertisement - Login to hide

Runways

ID Width Length Bearing (true) Bearing (mag) Surface Threshold Offset Overrun Length
13 100 ft / 30 m 6,308 ft / 1,923 m 140.37° 134.86° Asphalt 299 ft / 91 m 0 ft / 0 m
31 100 ft / 30 m 6,308 ft / 1,923 m 320.37° 314.86° Asphalt 0 ft / 0 m 0 ft / 0 m

Approach Navaids

Runway Type Ident Frequency Range Bearing (true) Bearing (mag) Slope Elevation
13 Localiser IDRT 111.90 MHz 18 nm / 33 km 140.37° 134.86° - 985 ft / 300 m (AMSL)
13 DME IDRT 111.90 MHz 18 nm / 33 km - - - 994 ft / 303 m (AMSL)

Map

Weather


0- 5 10 15 20 25 30 35+ Temperature / ° C

Clouds and Precipitation
Forecast for 2017-12-13 12:00 UTC. Updated 21 minutes ago

Ground ~20,000 ft ~40,000 ft Winds

METAR

KDRT 131053Z AUTO 00000KT 10SM CLR 03/02 A3017 RMK AO2 SLP211 T00330022

TAF

KDRT 130530Z 1306/1406 VRB03KT P6SM BKN200 FM131600 14007KT P6SM SCT150

Frequencies

Recorded 118.52 MHz ASOS
Clearance 120.50 MHz CLNC DEL
Departure 119.60 MHz DEP
Unicom 122.80 MHz CTAF/UNICOM
Approach 119.60 MHz APP
Warning: Do not use this data for real-world aviation or navigation. No guarantee of current accuracy is given.